sensor_id;sensor_type;location;lat;lon;timestamp;pressure;altitude;pressure_sealevel;temperature;humidity
18678;BME280;9469;51.114;13.914;2023-01-31T00:03:37;98620.63;;;3.27;100.00
18678;BME280;9469;51.114;13.914;2023-01-31T00:08:47;98640.16;;;3.36;100.00
18678;BME280;9469;51.114;13.914;2023-01-31T00:13:53;98631.59;;;3.14;100.00
18678;BME280;9469;51.114;13.914;2023-01-31T00:18:58;98642.66;;;3.16;100.00
18678;BME280;9469;51.114;13.914;2023-01-31T00:24:11;98644.22;;;3.17;100.00
18678;BME280;9469;51.114;13.914;2023-01-31T00:29:17;98658.88;;;3.08;100.00
18678;BME280;9469;51.114;13.914;2023-01-31T00:34:22;98656.69;;;2.95;100.00
18678;BME280;9469;51.114;13.914;2023-01-31T00:39:30;98664.09;;;3.03;100.00
18678;BME280;9469;51.114;13.914;2023-01-31T00:44:35;98663.91;;;3.10;100.00
18678;BME280;9469;51.114;13.914;2023-01-31T00:49:40;98667.84;;;3.12;100.00
18678;BME280;9469;51.114;13.914;2023-01-31T00:54:48;98671.03;;;3.14;100.00
18678;BME280;9469;51.114;13.914;2023-01-31T00:59:54;98686.28;;;3.17;100.00
18678;BME280;9469;51.114;13.914;2023-01-31T01:05:00;98673.66;;;3.14;100.00
18678;BME280;9469;51.114;13.914;2023-01-31T01:10:10;98679.91;;;3.08;100.00
18678;BME280;9469;51.114;13.914;2023-01-31T01:15:18;98699.91;;;3.09;100.00
18678;BME280;9469;51.114;13.914;2023-01-31T01:20:25;98719.50;;;2.97;100.00
18678;BME280;9469;51.114;13.914;2023-01-31T01:25:43;98717.38;;;2.94;100.00
18678;BME280;9469;51.114;13.914;2023-01-31T01:30:49;98705.00;;;2.89;100.00
18678;BME280;9469;51.114;13.914;2023-01-31T01:35:59;98727.34;;;2.92;100.00
18678;BME280;9469;51.114;13.914;2023-01-31T01:41:09;98735.22;;;2.92;100.00
18678;BME280;9469;51.114;13.914;2023-01-31T01:46:16;98753.19;;;2.73;100.00
18678;BME280;9469;51.114;13.914;2023-01-31T01:51:22;98751.09;;;2.75;100.00
18678;BME280;9469;51.114;13.914;2023-01-31T01:56:33;98752.84;;;2.64;100.00
18678;BME280;9469;51.114;13.914;2023-01-31T02:01:41;98756.75;;;2.62;100.00
18678;BME280;9469;51.114;13.914;2023-01-31T02:06:46;98751.28;;;2.68;100.00
18678;BME280;9469;51.114;13.914;2023-01-31T02:11:54;98772.59;;;2.72;100.00
18678;BME280;9469;51.114;13.914;2023-01-31T02:17:00;98756.56;;;2.68;100.00
18678;BME280;9469;51.114;13.914;2023-01-31T02:22:13;98784.16;;;2.71;100.00
18678;BME280;9469;51.114;13.914;2023-01-31T02:27:30;98793.16;;;2.32;100.00
18678;BME280;9469;51.114;13.914;2023-01-31T02:32:50;98799.31;;;2.21;100.00
18678;BME280;9469;51.114;13.914;2023-01-31T02:38:07;98814.28;;;2.42;100.00
18678;BME280;9469;51.114;13.914;2023-01-31T02:43:25;98797.56;;;2.48;100.00
18678;BME280;9469;51.114;13.914;2023-01-31T02:48:43;98816.28;;;2.56;100.00
18678;BME280;9469;51.114;13.914;2023-01-31T02:54:06;98805.78;;;2.56;100.00
18678;BME280;9469;51.114;13.914;2023-01-31T02:59:17;98835.88;;;2.70;100.00
18678;BME280;9469;51.114;13.914;2023-01-31T03:04:32;98837.78;;;2.75;100.00
18678;BME280;9469;51.114;13.914;2023-01-31T03:09:44;98846.69;;;2.74;100.00
18678;BME280;9469;51.114;13.914;2023-01-31T03:15:04;98852.81;;;2.79;100.00
18678;BME280;9469;51.114;13.914;2023-01-31T03:20:16;98860.22;;;2.87;100.00
18678;BME280;9469;51.114;13.914;2023-01-31T03:25:26;98887.13;;;2.95;100.00
18678;BME280;9469;51.114;13.914;2023-01-31T03:30:39;98892.09;;;2.91;100.00
18678;BME280;9469;51.114;13.914;2023-01-31T03:35:52;98887.63;;;2.92;100.00
18678;BME280;9469;51.114;13.914;2023-01-31T03:41:07;98895.00;;;2.95;100.00
18678;BME280;9469;51.114;13.914;2023-01-31T03:46:19;98901.25;;;2.88;100.00
18678;BME280;9469;51.114;13.914;2023-01-31T03:51:33;98890.47;;;2.90;100.00
18678;BME280;9469;51.114;13.914;2023-01-31T03:56:43;98901.50;;;2.87;100.00
18678;BME280;9469;51.114;13.914;2023-01-31T04:01:52;98909.81;;;3.01;100.00
18678;BME280;9469;51.114;13.914;2023-01-31T04:07:02;98910.03;;;2.99;100.00
18678;BME280;9469;51.114;13.914;2023-01-31T04:12:11;98923.06;;;2.89;100.00
18678;BME280;9469;51.114;13.914;2023-01-31T04:17:18;98923.78;;;2.84;100.00
18678;BME280;9469;51.114;13.914;2023-01-31T04:22:26;98925.56;;;2.79;100.00
18678;BME280;9469;51.114;13.914;2023-01-31T04:27:31;98924.38;;;2.70;100.00
18678;BME280;9469;51.114;13.914;2023-01-31T04:32:36;98930.06;;;2.62;100.00
18678;BME280;9469;51.114;13.914;2023-01-31T04:37:44;98953.47;;;2.47;100.00
18678;BME280;9469;51.114;13.914;2023-01-31T04:42:49;98970.06;;;2.31;100.00
18678;BME280;9469;51.114;13.914;2023-01-31T04:47:55;98960.94;;;2.16;100.00
18678;BME280;9469;51.114;13.914;2023-01-31T04:53:02;98969.19;;;2.08;100.00
18678;BME280;9469;51.114;13.914;2023-01-31T04:58:12;98960.22;;;2.21;100.00
18678;BME280;9469;51.114;13.914;2023-01-31T05:03:17;98961.41;;;2.13;100.00
18678;BME280;9469;51.114;13.914;2023-01-31T05:08:24;98969.66;;;2.39;100.00
18678;BME280;9469;51.114;13.914;2023-01-31T05:13:30;98968.63;;;2.40;100.00
18678;BME280;9469;51.114;13.914;2023-01-31T05:18:39;98962.66;;;2.44;100.00
18678;BME280;9469;51.114;13.914;2023-01-31T05:23:46;98966.69;;;2.52;100.00
18678;BME280;9469;51.114;13.914;2023-01-31T05:28:51;98967.63;;;2.62;100.00
18678;BME280;9469;51.114;13.914;2023-01-31T05:33:57;98975.41;;;2.74;100.00
18678;BME280;9469;51.114;13.914;2023-01-31T05:39:05;98990.53;;;2.67;100.00
18678;BME280;9469;51.114;13.914;2023-01-31T05:44:10;98978.16;;;2.84;100.00
18678;BME280;9469;51.114;13.914;2023-01-31T05:49:17;98973.94;;;2.83;100.00
18678;BME280;9469;51.114;13.914;2023-01-31T05:54:27;98984.16;;;2.79;100.00
18678;BME280;9469;51.114;13.914;2023-01-31T05:59:33;98975.00;;;2.82;100.00
18678;BME280;9469;51.114;13.914;2023-01-31T06:04:38;98978.34;;;2.77;100.00
18678;BME280;9469;51.114;13.914;2023-01-31T06:09:46;98974.19;;;3.03;100.00
18678;BME280;9469;51.114;13.914;2023-01-31T06:14:51;98978.09;;;2.79;100.00
18678;BME280;9469;51.114;13.914;2023-01-31T06:19:57;98980.47;;;2.80;100.00
18678;BME280;9469;51.114;13.914;2023-01-31T06:25:05;98975.56;;;2.67;100.00
18678;BME280;9469;51.114;13.914;2023-01-31T06:30:12;98981.44;;;2.74;100.00
18678;BME280;9469;51.114;13.914;2023-01-31T06:35:17;98984.50;;;2.66;100.00
18678;BME280;9469;51.114;13.914;2023-01-31T06:40:25;98991.41;;;2.72;100.00
18678;BME280;9469;51.114;13.914;2023-01-31T06:45:31;98993.59;;;2.59;100.00
18678;BME280;9469;51.114;13.914;2023-01-31T06:50:39;99002.63;;;2.68;100.00
18678;BME280;9469;51.114;13.914;2023-01-31T06:55:49;99003.84;;;2.60;100.00
18678;BME280;9469;51.114;13.914;2023-01-31T07:00:54;99006.88;;;2.69;100.00
18678;BME280;9469;51.114;13.914;2023-01-31T07:06:02;99013.94;;;2.68;100.00
18678;BME280;9469;51.114;13.914;2023-01-31T07:11:12;99027.81;;;2.64;100.00
18678;BME280;9469;51.114;13.914;2023-01-31T07:16:18;99038.31;;;2.64;100.00
18678;BME280;9469;51.114;13.914;2023-01-31T07:21:27;99027.81;;;2.64;100.00
18678;BME280;9469;51.114;13.914;2023-01-31T07:26:36;99027.31;;;2.67;100.00
18678;BME280;9469;51.114;13.914;2023-01-31T07:31:41;99025.38;;;2.79;100.00
18678;BME280;9469;51.114;13.914;2023-01-31T07:36:46;99024.41;;;2.85;100.00
18678;BME280;9469;51.114;13.914;2023-01-31T07:41:54;99029.34;;;2.81;100.00
18678;BME280;9469;51.114;13.914;2023-01-31T07:46:59;99036.22;;;2.82;100.00
18678;BME280;9469;51.114;13.914;2023-01-31T07:52:04;99033.69;;;2.71;100.00
18678;BME280;9469;51.114;13.914;2023-01-31T07:57:14;99025.56;;;2.72;100.00
18678;BME280;9469;51.114;13.914;2023-01-31T08:02:20;99022.63;;;2.69;100.00
18678;BME280;9469;51.114;13.914;2023-01-31T08:07:38;99035.41;;;2.82;100.00
18678;BME280;9469;51.114;13.914;2023-01-31T08:12:47;99049.22;;;2.94;100.00
18678;BME280;9469;51.114;13.914;2023-01-31T08:17:52;99036.59;;;2.91;100.00
18678;BME280;9469;51.114;13.914;2023-01-31T08:22:57;99042.13;;;3.11;100.00
18678;BME280;9469;51.114;13.914;2023-01-31T08:28:09;99034.47;;;3.31;100.00
18678;BME280;9469;51.114;13.914;2023-01-31T08:33:14;99031.06;;;3.31;100.00
18678;BME280;9469;51.114;13.914;2023-01-31T08:38:20;99021.19;;;3.21;100.00
18678;BME280;9469;51.114;13.914;2023-01-31T08:43:29;99026.47;;;3.21;100.00
18678;BME280;9469;51.114;13.914;2023-01-31T08:48:46;99033.56;;;3.21;100.00
18678;BME280;9469;51.114;13.914;2023-01-31T08:53:51;99035.66;;;3.19;100.00
18678;BME280;9469;51.114;13.914;2023-01-31T08:59:00;99035.03;;;3.33;100.00
18678;BME280;9469;51.114;13.914;2023-01-31T09:04:05;99022.66;;;3.55;100.00
18678;BME280;9469;51.114;13.914;2023-01-31T09:09:10;99010.56;;;3.54;100.00
18678;BME280;9469;51.114;13.914;2023-01-31T09:14:20;99016.38;;;3.56;100.00
18678;BME280;9469;51.114;13.914;2023-01-31T09:19:25;99023.91;;;3.75;100.00
18678;BME280;9469;51.114;13.914;2023-01-31T09:24:31;99030.06;;;3.85;100.00
18678;BME280;9469;51.114;13.914;2023-01-31T09:29:46;99018.50;;;4.13;100.00
18678;BME280;9469;51.114;13.914;2023-01-31T09:35:17;99006.72;;;4.20;100.00
18678;BME280;9469;51.114;13.914;2023-01-31T09:40:35;99003.72;;;4.44;100.00
18678;BME280;9469;51.114;13.914;2023-01-31T09:45:46;98997.66;;;4.43;100.00
18678;BME280;9469;51.114;13.914;2023-01-31T09:50:55;99000.69;;;4.25;100.00
18678;BME280;9469;51.114;13.914;2023-01-31T09:56:14;98986.69;;;4.19;100.00
18678;BME280;9469;51.114;13.914;2023-01-31T10:01:36;98978.50;;;4.16;100.00
18678;BME280;9469;51.114;13.914;2023-01-31T10:06:53;98992.41;;;4.48;100.00
18678;BME280;9469;51.114;13.914;2023-01-31T10:12:09;98971.88;;;4.45;100.00
18678;BME280;9469;51.114;13.914;2023-01-31T10:17:24;98970.84;;;4.51;100.00
18678;BME280;9469;51.114;13.914;2023-01-31T10:22:35;98968.13;;;4.41;100.00
18678;BME280;9469;51.114;13.914;2023-01-31T10:27:50;98968.75;;;4.53;100.00
18678;BME280;9469;51.114;13.914;2023-01-31T10:33:11;98962.22;;;4.61;100.00
18678;BME280;9469;51.114;13.914;2023-01-31T10:38:26;98965.44;;;4.68;100.00
18678;BME280;9469;51.114;13.914;2023-01-31T10:43:37;98937.63;;;4.50;100.00
18678;BME280;9469;51.114;13.914;2023-01-31T10:48:48;98940.59;;;4.59;100.00
18678;BME280;9469;51.114;13.914;2023-01-31T10:54:05;98939.31;;;4.66;100.00
18678;BME280;9469;51.114;13.914;2023-01-31T10:59:22;98922.72;;;4.71;99.75
18678;BME280;9469;51.114;13.914;2023-01-31T11:04:38;98915.31;;;4.63;98.74
18678;BME280;9469;51.114;13.914;2023-01-31T11:09:48;98906.06;;;4.55;98.89
18678;BME280;9469;51.114;13.914;2023-01-31T11:15:14;98902.94;;;4.68;97.78
18678;BME280;9469;51.114;13.914;2023-01-31T11:20:36;98884.28;;;4.70;97.42
18678;BME280;9469;51.114;13.914;2023-01-31T11:25:48;98879.03;;;4.75;97.57
18678;BME280;9469;51.114;13.914;2023-01-31T11:30:54;98891.13;;;4.66;98.58
18678;BME280;9469;51.114;13.914;2023-01-31T11:36:07;98865.81;;;4.70;99.74
18678;BME280;9469;51.114;13.914;2023-01-31T11:41:33;98858.44;;;4.67;99.83
18678;BME280;9469;51.114;13.914;2023-01-31T11:46:47;98854.78;;;4.78;98.65
18678;BME280;9469;51.114;13.914;2023-01-31T11:51:59;98847.66;;;4.78;98.08
18678;BME280;9469;51.114;13.914;2023-01-31T11:57:18;98840.28;;;4.80;96.45
18678;BME280;9469;51.114;13.914;2023-01-31T12:02:35;98822.94;;;5.04;95.66
18678;BME280;9469;51.114;13.914;2023-01-31T12:07:50;98801.34;;;5.28;94.62
18678;BME280;9469;51.114;13.914;2023-01-31T12:13:10;98778.16;;;5.45;93.55
18678;BME280;9469;51.114;13.914;2023-01-31T12:18:40;98774.97;;;5.48;92.91
18678;BME280;9469;51.114;13.914;2023-01-31T12:24:08;98784.47;;;5.44;93.39
18678;BME280;9469;51.114;13.914;2023-01-31T12:29:53;98779.72;;;5.41;93.11
18678;BME280;9469;51.114;13.914;2023-01-31T12:35:25;98752.81;;;5.39;93.71
18678;BME280;9469;51.114;13.914;2023-01-31T12:40:39;98757.31;;;5.48;93.95
18678;BME280;9469;51.114;13.914;2023-01-31T12:45:58;98742.53;;;5.37;93.59
18678;BME280;9469;51.114;13.914;2023-01-31T12:51:25;98733.34;;;5.20;94.27
18678;BME280;9469;51.114;13.914;2023-01-31T12:56:46;98730.16;;;4.97;98.82
18678;BME280;9469;51.114;13.914;2023-01-31T13:01:59;98718.28;;;4.75;100.00
18678;BME280;9469;51.114;13.914;2023-01-31T13:07:10;98701.66;;;4.84;100.00
18678;BME280;9469;51.114;13.914;2023-01-31T13:12:23;98700.63;;;4.90;100.00
18678;BME280;9469;51.114;13.914;2023-01-31T13:17:33;98704.06;;;4.96;100.00
18678;BME280;9469;51.114;13.914;2023-01-31T13:22:44;98694.00;;;4.63;100.00
18678;BME280;9469;51.114;13.914;2023-01-31T13:28:02;98684.25;;;4.53;100.00
18678;BME280;9469;51.114;13.914;2023-01-31T13:33:26;98674.22;;;4.40;100.00
18678;BME280;9469;51.114;13.914;2023-01-31T13:38:37;98671.06;;;4.38;100.00
18678;BME280;9469;51.114;13.914;2023-01-31T13:43:50;98677.78;;;3.99;100.00
18678;BME280;9469;51.114;13.914;2023-01-31T13:48:58;98658.81;;;3.87;100.00
18678;BME280;9469;51.114;13.914;2023-01-31T13:54:13;98658.78;;;3.82;100.00
18678;BME280;9469;51.114;13.914;2023-01-31T13:59:24;98651.38;;;3.79;100.00
18678;BME280;9469;51.114;13.914;2023-01-31T14:04:32;98643.75;;;3.77;100.00
18678;BME280;9469;51.114;13.914;2023-01-31T14:26:50;98624.03;;;3.80;100.00
18678;BME280;9469;51.114;13.914;2023-01-31T14:31:59;98611.91;;;3.74;100.00
18678;BME280;9469;51.114;13.914;2023-01-31T14:37:14;98610.59;;;3.76;100.00
18678;BME280;9469;51.114;13.914;2023-01-31T14:42:53;98601.41;;;3.84;100.00
18678;BME280;9469;51.114;13.914;2023-01-31T14:48:13;98603.22;;;3.78;100.00
18678;BME280;9469;51.114;13.914;2023-01-31T14:53:37;98586.91;;;3.71;100.00
18678;BME280;9469;51.114;13.914;2023-01-31T14:58:47;98595.06;;;3.75;100.00
18678;BME280;9469;51.114;13.914;2023-01-31T15:03:56;98597.41;;;3.71;100.00
18678;BME280;9469;51.114;13.914;2023-01-31T15:09:37;98586.38;;;3.64;100.00
18678;BME280;9469;51.114;13.914;2023-01-31T15:14:46;98586.69;;;3.78;100.00
18678;BME280;9469;51.114;13.914;2023-01-31T15:20:02;98585.50;;;3.48;100.00
18678;BME280;9469;51.114;13.914;2023-01-31T15:25:22;98575.28;;;3.52;100.00
18678;BME280;9469;51.114;13.914;2023-01-31T15:30:34;98581.81;;;3.44;100.00
18678;BME280;9469;51.114;13.914;2023-01-31T15:35:48;98576.63;;;3.64;100.00
18678;BME280;9469;51.114;13.914;2023-01-31T15:41:20;98583.63;;;3.39;100.00
18678;BME280;9469;51.114;13.914;2023-01-31T15:46:28;98588.69;;;3.50;100.00
18678;BME280;9469;51.114;13.914;2023-01-31T15:51:36;98590.22;;;3.41;100.00
18678;BME280;9469;51.114;13.914;2023-01-31T15:56:42;98586.06;;;3.50;100.00
18678;BME280;9469;51.114;13.914;2023-01-31T16:01:49;98600.19;;;3.39;100.00
18678;BME280;9469;51.114;13.914;2023-01-31T16:06:59;98602.56;;;3.41;100.00
18678;BME280;9469;51.114;13.914;2023-01-31T16:12:08;98594.88;;;3.29;100.00
18678;BME280;9469;51.114;13.914;2023-01-31T16:17:14;98598.84;;;3.32;100.00
18678;BME280;9469;51.114;13.914;2023-01-31T16:22:25;98571.47;;;3.23;100.00
18678;BME280;9469;51.114;13.914;2023-01-31T16:27:35;98587.81;;;3.30;100.00
18678;BME280;9469;51.114;13.914;2023-01-31T16:32:42;98575.97;;;3.32;100.00
18678;BME280;9469;51.114;13.914;2023-01-31T16:38:05;98578.88;;;3.36;100.00
18678;BME280;9469;51.114;13.914;2023-01-31T16:43:20;98583.31;;;3.25;100.00
18678;BME280;9469;51.114;13.914;2023-01-31T16:48:30;98578.88;;;3.36;100.00
18678;BME280;9469;51.114;13.914;2023-01-31T16:53:40;98580.69;;;3.30;100.00
18678;BME280;9469;51.114;13.914;2023-01-31T16:58:51;98581.56;;;3.46;100.00
18678;BME280;9469;51.114;13.914;2023-01-31T17:04:03;98599.94;;;3.41;100.00
18678;BME280;9469;51.114;13.914;2023-01-31T17:09:16;98596.50;;;3.40;100.00
18678;BME280;9469;51.114;13.914;2023-01-31T17:14:23;98601.28;;;3.43;100.00
18678;BME280;9469;51.114;13.914;2023-01-31T17:19:28;98582.91;;;3.53;100.00
18678;BME280;9469;51.114;13.914;2023-01-31T17:24:35;98583.66;;;3.49;100.00
18678;BME280;9469;51.114;13.914;2023-01-31T17:29:41;98587.91;;;3.60;100.00
18678;BME280;9469;51.114;13.914;2023-01-31T17:34:48;98583.34;;;3.35;100.00
18678;BME280;9469;51.114;13.914;2023-01-31T17:39:55;98569.19;;;3.41;100.00
18678;BME280;9469;51.114;13.914;2023-01-31T17:45:00;98580.72;;;3.35;100.00
18678;BME280;9469;51.114;13.914;2023-01-31T17:50:13;98569.66;;;3.33;100.00
18678;BME280;9469;51.114;13.914;2023-01-31T17:55:21;98571.81;;;3.46;100.00
18678;BME280;9469;51.114;13.914;2023-01-31T18:00:26;98550.00;;;3.51;100.00
18678;BME280;9469;51.114;13.914;2023-01-31T18:05:35;98551.59;;;3.52;100.00
18678;BME280;9469;51.114;13.914;2023-01-31T18:10:43;98555.03;;;3.57;100.00
18678;BME280;9469;51.114;13.914;2023-01-31T18:15:50;98547.16;;;3.62;100.00
18678;BME280;9469;51.114;13.914;2023-01-31T18:21:07;98550.59;;;3.68;100.00
18678;BME280;9469;51.114;13.914;2023-01-31T18:26:16;98559.03;;;3.75;100.00
18678;BME280;9469;51.114;13.914;2023-01-31T18:31:21;98548.81;;;3.89;100.00
18678;BME280;9469;51.114;13.914;2023-01-31T18:36:29;98534.06;;;4.03;100.00
18678;BME280;9469;51.114;13.914;2023-01-31T18:41:37;98519.88;;;4.04;100.00
18678;BME280;9469;51.114;13.914;2023-01-31T18:46:43;98534.09;;;4.08;100.00
18678;BME280;9469;51.114;13.914;2023-01-31T18:51:48;98543.56;;;4.19;100.00
18678;BME280;9469;51.114;13.914;2023-01-31T18:56:56;98554.91;;;4.19;100.00
18678;BME280;9469;51.114;13.914;2023-01-31T19:02:01;98526.47;;;4.26;100.00
18678;BME280;9469;51.114;13.914;2023-01-31T19:07:07;98526.75;;;4.45;100.00
18678;BME280;9469;51.114;13.914;2023-01-31T19:12:15;98517.00;;;4.35;100.00
18678;BME280;9469;51.114;13.914;2023-01-31T19:17:20;98521.47;;;4.40;100.00
18678;BME280;9469;51.114;13.914;2023-01-31T19:22:26;98507.50;;;4.45;100.00
18678;BME280;9469;51.114;13.914;2023-01-31T19:27:38;98484.59;;;4.40;100.00
18678;BME280;9469;51.114;13.914;2023-01-31T19:32:47;98491.72;;;4.45;100.00
18678;BME280;9469;51.114;13.914;2023-01-31T19:37:53;98481.44;;;4.43;100.00
18678;BME280;9469;51.114;13.914;2023-01-31T19:43:01;98491.97;;;4.43;100.00
18678;BME280;9469;51.114;13.914;2023-01-31T19:48:07;98496.97;;;4.40;100.00
18678;BME280;9469;51.114;13.914;2023-01-31T19:53:13;98511.97;;;4.14;100.00
18678;BME280;9469;51.114;13.914;2023-01-31T19:58:22;98500.94;;;4.22;100.00
18678;BME280;9469;51.114;13.914;2023-01-31T20:03:32;98513.56;;;4.15;100.00
18678;BME280;9469;51.114;13.914;2023-01-31T20:08:39;98524.91;;;4.35;100.00
18678;BME280;9469;51.114;13.914;2023-01-31T20:13:47;98533.31;;;4.27;100.00
18678;BME280;9469;51.114;13.914;2023-01-31T20:18:53;98495.41;;;4.33;100.00
18678;BME280;9469;51.114;13.914;2023-01-31T20:24:00;98510.94;;;4.30;100.00
18678;BME280;9469;51.114;13.914;2023-01-31T20:29:11;98511.44;;;4.32;100.00
18678;BME280;9469;51.114;13.914;2023-01-31T20:34:17;98500.94;;;4.37;100.00
18678;BME280;9469;51.114;13.914;2023-01-31T20:39:22;98516.22;;;4.20;100.00
18678;BME280;9469;51.114;13.914;2023-01-31T20:44:30;98513.03;;;4.13;100.00
18678;BME280;9469;51.114;13.914;2023-01-31T20:49:37;98496.72;;;4.06;100.00
18678;BME280;9469;51.114;13.914;2023-01-31T20:54:42;98505.66;;;4.00;100.00
18678;BME280;9469;51.114;13.914;2023-01-31T20:59:50;98499.88;;;4.08;100.00
18678;BME280;9469;51.114;13.914;2023-01-31T21:04:55;98501.47;;;4.09;100.00
18678;BME280;9469;51.114;13.914;2023-01-31T21:10:02;98505.94;;;4.28;100.00
18678;BME280;9469;51.114;13.914;2023-01-31T21:15:10;98493.56;;;4.29;100.00
18678;BME280;9469;51.114;13.914;2023-01-31T21:20:17;98496.97;;;4.34;100.00
18678;BME280;9469;51.114;13.914;2023-01-31T21:25:23;98500.94;;;4.42;100.00
18678;BME280;9469;51.114;13.914;2023-01-31T21:30:33;98528.06;;;4.43;100.00
18678;BME280;9469;51.114;13.914;2023-01-31T21:35:38;98529.38;;;4.45;100.00
18678;BME280;9469;51.114;13.914;2023-01-31T21:40:45;98516.97;;;4.46;100.00
18678;BME280;9469;51.114;13.914;2023-01-31T21:45:53;98532.53;;;4.47;100.00
18678;BME280;9469;51.114;13.914;2023-01-31T21:51:02;98558.34;;;4.25;100.00
18678;BME280;9469;51.114;13.914;2023-01-31T21:56:11;98549.38;;;4.21;100.00
18678;BME280;9469;51.114;13.914;2023-01-31T22:01:21;98544.38;;;4.19;100.00
18678;BME280;9469;51.114;13.914;2023-01-31T22:06:28;98534.09;;;4.23;100.00
18678;BME280;9469;51.114;13.914;2023-01-31T22:11:35;98535.16;;;4.42;100.00
18678;BME280;9469;51.114;13.914;2023-01-31T22:16:42;98532.25;;;4.44;100.00
18678;BME280;9469;51.114;13.914;2023-01-31T22:21:49;98534.09;;;4.58;100.00
18678;BME280;9469;51.114;13.914;2023-01-31T22:26:54;98534.63;;;4.65;100.00
18678;BME280;9469;51.114;13.914;2023-01-31T22:32:02;98516.72;;;4.62;100.00
18678;BME280;9469;51.114;13.914;2023-01-31T22:37:07;98508.56;;;4.59;100.00
18678;BME280;9469;51.114;13.914;2023-01-31T22:42:12;98504.84;;;4.75;100.00
18678;BME280;9469;51.114;13.914;2023-01-31T22:47:20;98501.66;;;4.78;100.00
18678;BME280;9469;51.114;13.914;2023-01-31T22:52:25;98506.38;;;4.91;100.00
18678;BME280;9469;51.114;13.914;2023-01-31T22:57:30;98524.56;;;4.87;100.00
18678;BME280;9469;51.114;13.914;2023-01-31T23:02:37;98522.44;;;4.94;100.00
18678;BME280;9469;51.114;13.914;2023-01-31T23:07:44;98520.63;;;4.85;100.00
18678;BME280;9469;51.114;13.914;2023-01-31T23:12:49;98527.72;;;4.89;100.00
18678;BME280;9469;51.114;13.914;2023-01-31T23:17:57;98533.50;;;4.91;100.00
18678;BME280;9469;51.114;13.914;2023-01-31T23:23:04;98519.81;;;4.84;100.00
18678;BME280;9469;51.114;13.914;2023-01-31T23:28:10;98538.53;;;4.83;100.00
18678;BME280;9469;51.114;13.914;2023-01-31T23:33:17;98535.38;;;4.81;100.00
18678;BME280;9469;51.114;13.914;2023-01-31T23:38:23;98534.34;;;4.72;100.00
18678;BME280;9469;51.114;13.914;2023-01-31T23:43:27;98528.81;;;4.68;100.00
18678;BME280;9469;51.114;13.914;2023-01-31T23:48:35;98532.25;;;4.54;100.00
18678;BME280;9469;51.114;13.914;2023-01-31T23:53:42;98548.09;;;4.39;100.00
18678;BME280;9469;51.114;13.914;2023-01-31T23:58:47;98553.34;;;4.39;100.00
